createdAt,value
2019-05-26T00:01:00.966Z,22.93
2019-05-26T00:03:29.401Z,19.20
2019-05-26T00:05:57.841Z,21.68
2019-05-26T00:08:27.002Z,12.20
2019-05-26T00:10:55.707Z,14.23
2019-05-26T00:13:24.158Z,18.75
2019-05-26T00:15:52.593Z,17.60
2019-05-26T00:18:21.040Z,16.27
2019-05-26T00:20:49.757Z,17.77
2019-05-26T00:23:18.461Z,20.50
2019-05-26T00:25:46.896Z,17.95
2019-05-26T00:28:15.661Z,16.50
2019-05-26T00:30:44.125Z,18.80
2019-05-26T00:33:12.574Z,17.50
2019-05-26T00:35:41.019Z,15.30
2019-05-26T00:38:09.467Z,19.82
2019-05-26T00:40:37.905Z,18.25
2019-05-26T00:43:06.371Z,21.12
2019-05-26T00:45:35.239Z,19.27
2019-05-26T00:48:04.229Z,18.20
2019-05-26T00:50:33.052Z,19.62
2019-05-26T00:53:02.033Z,21.15
2019-05-26T00:55:30.547Z,16.50
2019-05-26T00:57:59.046Z,16.87
2019-05-26T01:00:38.808Z,21.25
2019-05-26T01:03:07.730Z,15.53
2019-05-26T01:05:36.226Z,17.57
2019-05-26T01:08:06.956Z,18.75
2019-05-26T01:10:36.458Z,19.87
2019-05-26T01:13:06.213Z,18.60
2019-05-26T01:15:35.259Z,18.42
2019-05-26T01:18:04.646Z,21.30
2019-05-26T01:20:33.091Z,18.73
2019-05-26T01:23:01.526Z,18.20
2019-05-26T01:25:29.988Z,24.02
2019-05-26T01:27:58.780Z,18.15
2019-05-26T01:30:35.334Z,22.10
2019-05-26T01:33:04.130Z,18.52
2019-05-26T01:35:33.638Z,23.27
2019-05-26T01:38:03.459Z,23.12
2019-05-26T01:40:40.121Z,20.85
2019-05-26T01:43:08.994Z,24.95
2019-05-26T01:45:37.763Z,21.45
2019-05-26T01:48:07.037Z,21.75
2019-05-26T01:50:35.705Z,29.57
2019-05-26T01:53:04.897Z,20.55
2019-05-26T01:55:33.775Z,19.52
2019-05-26T01:58:02.214Z,20.30
2019-05-26T02:00:30.728Z,22.40
2019-05-26T02:02:59.153Z,20.32
2019-05-26T02:05:27.612Z,20.77
2019-05-26T02:07:56.376Z,21.23
2019-05-26T02:10:24.820Z,19.35
2019-05-26T02:12:53.249Z,18.73
2019-05-26T02:15:23.039Z,17.55
2019-05-26T02:17:51.545Z,15.70
2019-05-26T02:20:20.123Z,15.05
2019-05-26T02:22:48.607Z,19.45
2019-05-26T02:25:18.819Z,20.40
2019-05-26T02:27:47.346Z,21.37
2019-05-26T02:30:17.530Z,17.98
2019-05-26T02:32:45.967Z,18.95
2019-05-26T02:35:14.852Z,20.08
2019-05-26T02:37:43.531Z,20.40
2019-05-26T02:40:12.422Z,14.90
2019-05-26T02:42:41.335Z,20.32
2019-05-26T02:45:12.938Z,21.15
2019-05-26T02:47:41.446Z,18.62
2019-05-26T02:50:10.502Z,16.48
2019-05-26T02:52:38.995Z,23.38
2019-05-26T02:55:09.901Z,18.15
2019-05-26T02:57:38.341Z,21.33
2019-05-26T03:00:11.669Z,21.37
2019-05-26T03:02:40.367Z,23.70
2019-05-26T03:05:10.803Z,20.77
2019-05-26T03:07:43.562Z,22.13
2019-05-26T03:10:14.480Z,21.90
2019-05-26T03:12:43.961Z,19.17
2019-05-26T03:15:15.482Z,19.20
2019-05-26T03:17:43.979Z,24.27
2019-05-26T03:20:14.222Z,16.37
2019-05-26T03:22:43.190Z,20.52
2019-05-26T03:25:12.753Z,23.73
2019-05-26T03:27:41.684Z,17.70
2019-05-26T03:30:10.710Z,19.52
2019-05-26T03:32:39.397Z,21.17
2019-05-26T03:35:10.536Z,22.90
2019-05-26T03:37:39.097Z,23.47
2019-05-26T03:40:09.212Z,17.85
2019-05-26T03:42:37.808Z,17.23
2019-05-26T03:45:07.708Z,17.20
2019-05-26T03:47:36.368Z,15.72
2019-05-26T03:50:16.256Z,19.85
2019-05-26T03:52:44.702Z,15.68
2019-05-26T03:55:13.425Z,16.70
2019-05-26T03:57:41.870Z,21.07
2019-05-26T04:00:10.648Z,16.90
2019-05-26T04:02:39.367Z,20.10
2019-05-26T04:05:08.354Z,17.32
2019-05-26T04:07:36.883Z,16.17
2019-05-26T04:10:06.885Z,19.23
2019-05-26T04:12:35.766Z,16.07
2019-05-26T04:15:06.725Z,17.67
2019-05-26T04:17:35.167Z,20.45
2019-05-26T04:20:05.541Z,20.52
2019-05-26T04:22:33.972Z,17.73
2019-05-26T04:25:03.151Z,17.30
2019-05-26T04:27:31.608Z,20.35
2019-05-26T04:30:00.054Z,14.80
2019-05-26T04:32:28.566Z,14.75
2019-05-26T04:34:57.000Z,17.15
2019-05-26T04:37:25.735Z,15.15
2019-05-26T04:39:54.235Z,16.05
2019-05-26T04:42:22.945Z,19.20
2019-05-26T04:44:51.626Z,15.30
2019-05-26T04:47:20.092Z,14.87
2019-05-26T04:49:48.605Z,12.78
2019-05-26T04:52:17.075Z,12.63
2019-05-26T04:54:45.602Z,14.07
2019-05-26T04:57:14.082Z,11.65
2019-05-26T04:59:42.515Z,15.28
2019-05-26T05:02:10.971Z,13.03
2019-05-26T05:04:39.699Z,14.85
2019-05-26T05:07:08.492Z,11.75
2019-05-26T05:09:37.207Z,13.28
2019-05-26T05:12:05.650Z,13.08
2019-05-26T05:14:34.096Z,17.32
2019-05-26T05:17:02.551Z,14.75
2019-05-26T05:19:30.994Z,12.88
2019-05-26T05:21:59.462Z,11.78
2019-05-26T05:24:28.141Z,15.13
2019-05-26T05:26:56.855Z,17.35
2019-05-26T05:29:25.567Z,16.02
2019-05-26T05:31:54.010Z,11.20
2019-05-26T05:34:22.700Z,14.10
2019-05-26T05:36:51.154Z,11.90
2019-05-26T05:39:19.590Z,11.65
2019-05-26T05:41:48.316Z,13.50
2019-05-26T05:44:16.838Z,13.28
2019-05-26T05:46:45.297Z,15.45
2019-05-26T05:49:13.979Z,12.65
2019-05-26T05:51:42.439Z,13.15
2019-05-26T05:54:11.168Z,17.40
2019-05-26T05:56:39.622Z,14.95
2019-05-26T05:59:08.067Z,11.75
2019-05-26T06:01:36.523Z,13.25
2019-05-26T06:04:05.027Z,16.27
2019-05-26T06:06:33.490Z,14.87
2019-05-26T06:09:01.941Z,15.98
2019-05-26T06:11:30.391Z,13.43
2019-05-26T06:13:58.902Z,15.88
2019-05-26T06:16:28.423Z,10.50
2019-05-26T06:18:56.864Z,11.20
2019-05-26T06:21:26.162Z,17.75
2019-05-26T06:23:54.603Z,21.80
2019-05-26T06:26:23.071Z,17.98
2019-05-26T06:28:52.557Z,14.28
2019-05-26T06:31:21.325Z,11.70
2019-05-26T06:33:50.082Z,13.03
2019-05-26T06:36:18.538Z,17.70
2019-05-26T06:38:46.981Z,18.87
2019-05-26T06:41:30.426Z,17.95
2019-05-26T06:43:45.875Z,10.88
2019-05-26T06:46:14.325Z,12.07
2019-05-26T06:48:42.771Z,16.45
2019-05-26T06:51:11.479Z,18.62
2019-05-26T06:53:39.916Z,12.55
2019-05-26T06:56:08.628Z,11.08
2019-05-26T06:58:37.352Z,12.03
2019-05-26T07:01:06.111Z,14.20
2019-05-26T07:03:34.572Z,12.95
2019-05-26T07:06:03.007Z,13.88
2019-05-26T07:08:31.715Z,10.55
2019-05-26T07:11:00.150Z,12.82
2019-05-26T07:13:28.675Z,15.13
2019-05-26T07:15:57.125Z,17.87
2019-05-26T07:18:25.579Z,16.60
2019-05-26T07:20:54.018Z,14.50
2019-05-26T07:23:22.474Z,14.85
2019-05-26T07:25:50.919Z,9.43
2019-05-26T07:28:19.438Z,17.75
2019-05-26T07:30:47.904Z,14.30
2019-05-26T07:33:16.668Z,13.20
2019-05-26T07:35:45.109Z,15.80
2019-05-26T07:38:13.558Z,14.83
2019-05-26T07:40:42.012Z,14.80
2019-05-26T07:43:10.796Z,17.00
2019-05-26T07:45:39.241Z,16.05
2019-05-26T07:48:07.975Z,21.45
2019-05-26T07:50:36.419Z,22.90
2019-05-26T07:53:04.944Z,17.95
2019-05-26T07:55:33.390Z,23.27
2019-05-26T07:58:01.925Z,27.17
2019-05-26T08:00:30.684Z,25.23
2019-05-26T08:02:59.854Z,24.07
2019-05-26T08:05:28.603Z,25.10
2019-05-26T08:08:11.642Z,30.57
2019-05-26T08:10:27.381Z,23.77
2019-05-26T08:12:56.095Z,29.45
2019-05-26T08:15:24.904Z,30.25
2019-05-26T08:17:53.592Z,25.45
2019-05-26T08:20:22.385Z,25.57
2019-05-26T08:22:50.827Z,24.92
2019-05-26T08:25:19.359Z,24.10
2019-05-26T08:27:47.883Z,23.67
2019-05-26T08:30:16.506Z,20.02
2019-05-26T08:32:45.351Z,19.23
2019-05-26T08:35:14.822Z,21.55
2019-05-26T08:37:43.292Z,16.52
2019-05-26T08:40:18.111Z,12.47
2019-05-26T08:42:51.495Z,14.35
2019-05-26T08:45:22.611Z,19.42
2019-05-26T08:47:52.533Z,12.78
2019-05-26T08:50:21.977Z,12.90
2019-05-26T08:52:50.537Z,18.00
2019-05-26T08:55:19.339Z,19.35
2019-05-26T08:57:47.881Z,13.55
2019-05-26T09:00:17.062Z,11.33
2019-05-26T09:02:45.780Z,11.15
2019-05-26T09:05:14.651Z,10.75
2019-05-26T09:07:43.109Z,16.93
2019-05-26T09:10:12.394Z,9.25
2019-05-26T09:12:40.926Z,8.70
2019-05-26T09:15:09.932Z,18.77
2019-05-26T09:17:38.519Z,9.40
2019-05-26T09:20:11.651Z,11.85
2019-05-26T09:22:39.648Z,13.90
2019-05-26T09:25:09.086Z,10.53
2019-05-26T09:27:37.851Z,11.65
2019-05-26T09:30:07.584Z,8.10
2019-05-26T09:32:36.274Z,9.20
2019-05-26T09:35:07.751Z,9.25
2019-05-26T09:37:36.252Z,8.58
2019-05-26T09:40:08.702Z,11.90
2019-05-26T09:42:37.239Z,8.75
2019-05-26T09:45:08.887Z,10.78
2019-05-26T09:47:37.668Z,14.10
2019-05-26T09:50:07.175Z,10.32
2019-05-26T09:52:36.062Z,19.50
2019-05-26T09:55:09.327Z,10.08
2019-05-26T09:57:37.789Z,16.87
2019-05-26T10:00:08.075Z,16.67
2019-05-26T10:02:36.911Z,11.00
2019-05-26T10:05:07.099Z,11.05
2019-05-26T10:07:35.628Z,13.38
2019-05-26T10:10:08.817Z,10.05
2019-05-26T10:12:37.253Z,7.75
2019-05-26T10:15:10.111Z,11.50
2019-05-26T10:17:38.551Z,12.25
2019-05-26T10:20:10.094Z,11.48
2019-05-26T10:22:38.538Z,14.90
2019-05-26T10:25:08.747Z,9.28
2019-05-26T10:27:37.224Z,9.68
2019-05-26T10:30:11.894Z,10.05
2019-05-26T10:32:40.948Z,12.13
2019-05-26T10:35:10.543Z,8.63
2019-05-26T10:37:39.051Z,9.83
2019-05-26T10:40:09.199Z,10.03
2019-05-26T10:42:37.946Z,14.93
2019-05-26T10:45:08.572Z,9.00
2019-05-26T10:47:37.048Z,8.13
2019-05-26T10:50:09.032Z,15.10
2019-05-26T10:52:37.512Z,9.75
2019-05-26T10:55:09.211Z,9.60
2019-05-26T10:57:37.679Z,8.33
2019-05-26T11:00:08.526Z,11.78
2019-05-26T11:02:37.055Z,17.55
2019-05-26T11:05:07.280Z,8.13
2019-05-26T11:07:35.807Z,11.53
2019-05-26T11:10:08.656Z,12.03
2019-05-26T11:12:37.180Z,11.45
2019-05-26T11:15:09.580Z,9.00
2019-05-26T11:17:38.235Z,12.60
2019-05-26T11:20:08.648Z,10.18
2019-05-26T11:22:37.402Z,12.43
2019-05-26T11:25:06.899Z,10.23
2019-05-26T11:27:35.372Z,24.18
2019-05-26T11:30:11.846Z,13.80
2019-05-26T11:32:40.563Z,14.90
2019-05-26T11:35:09.499Z,9.60
2019-05-26T11:37:38.037Z,13.90
2019-05-26T11:40:07.223Z,14.23
2019-05-26T11:42:36.020Z,13.13
2019-05-26T11:45:09.290Z,10.48
2019-05-26T11:47:37.754Z,14.13
2019-05-26T11:50:07.261Z,10.20
2019-05-26T11:52:35.716Z,15.58
2019-05-26T11:55:06.402Z,9.63
2019-05-26T11:57:36.965Z,13.43
2019-05-26T12:00:14.291Z,8.68
2019-05-26T12:02:43.935Z,11.45
2019-05-26T12:05:12.927Z,7.83
2019-05-26T12:07:41.646Z,16.37
2019-05-26T12:10:14.184Z,8.60
2019-05-26T12:12:41.895Z,8.40
2019-05-26T12:15:11.084Z,9.65
2019-05-26T12:17:39.599Z,8.73
2019-05-26T12:20:08.755Z,11.28
2019-05-26T12:22:37.369Z,11.25
2019-05-26T12:25:08.177Z,6.72
2019-05-26T12:27:36.693Z,11.00
2019-05-26T12:30:09.592Z,8.68
2019-05-26T12:32:38.018Z,9.50
2019-05-26T12:35:08.117Z,7.60
2019-05-26T12:37:36.592Z,7.97
2019-05-26T12:40:08.356Z,12.95
2019-05-26T12:42:37.132Z,6.30
2019-05-26T12:45:07.984Z,5.55
2019-05-26T12:47:36.759Z,5.20
2019-05-26T12:50:09.294Z,17.55
2019-05-26T12:55:09.329Z,8.98
2019-05-26T12:57:37.286Z,11.83
2019-05-26T13:00:10.855Z,7.83
2019-05-26T13:02:39.459Z,8.85
2019-05-26T13:05:09.009Z,7.37
2019-05-26T13:07:37.747Z,8.58
2019-05-26T13:10:08.060Z,10.48
2019-05-26T13:12:36.551Z,8.10
2019-05-26T13:15:09.917Z,8.00
2019-05-26T13:17:38.751Z,9.18
2019-05-26T13:20:08.360Z,13.22
2019-05-26T13:22:37.050Z,8.73
2019-05-26T13:25:08.647Z,10.58
2019-05-26T13:27:37.088Z,8.53
2019-05-26T13:30:08.601Z,4.53
2019-05-26T13:32:37.047Z,10.23
2019-05-26T13:35:09.310Z,7.87
2019-05-26T13:37:37.842Z,7.25
2019-05-26T13:40:08.025Z,5.97
2019-05-26T13:42:37.456Z,7.58
2019-05-26T13:45:21.106Z,4.40
2019-05-26T13:47:38.717Z,4.28
2019-05-26T13:50:08.234Z,9.18
2019-05-26T13:52:36.683Z,5.17
2019-05-26T13:55:09.590Z,7.22
2019-05-26T13:57:38.042Z,6.78
2019-05-26T14:00:12.068Z,10.85
2019-05-26T14:02:40.728Z,6.35
2019-05-26T14:05:10.057Z,4.90
2019-05-26T14:07:38.767Z,9.18
2019-05-26T14:10:08.315Z,9.35
2019-05-26T14:12:36.938Z,5.35
2019-05-26T14:15:08.504Z,9.63
2019-05-26T14:17:38.538Z,8.08
2019-05-26T14:20:08.784Z,5.75
2019-05-26T14:22:37.263Z,12.35
2019-05-26T14:25:07.750Z,5.28
2019-05-26T14:27:36.483Z,11.00
2019-05-26T14:30:07.723Z,4.53
2019-05-26T14:32:36.182Z,4.78
2019-05-26T14:35:07.552Z,8.03
2019-05-26T14:37:36.123Z,8.88
2019-05-26T14:40:07.678Z,4.95
2019-05-26T14:42:36.269Z,7.60
2019-05-26T14:45:06.116Z,7.75
2019-05-26T14:47:34.570Z,3.22
2019-05-26T14:50:04.443Z,18.30
2019-05-26T14:52:33.163Z,3.75
2019-05-26T14:55:01.608Z,6.50
2019-05-26T14:57:31.040Z,10.10
2019-05-26T14:59:59.935Z,4.95
2019-05-26T15:02:28.520Z,8.70
2019-05-26T15:04:57.255Z,6.15
2019-05-26T15:07:25.703Z,5.20
2019-05-26T15:09:54.138Z,4.83
2019-05-26T15:12:22.922Z,6.47
2019-05-26T15:14:51.378Z,8.28
2019-05-26T15:17:19.807Z,4.20
2019-05-26T15:19:48.516Z,6.20
2019-05-26T15:22:17.170Z,5.90
2019-05-26T15:24:45.646Z,4.03
2019-05-26T15:27:14.439Z,8.18
2019-05-26T15:29:43.207Z,6.55
2019-05-26T15:32:11.894Z,3.37
2019-05-26T15:34:40.620Z,2.90
2019-05-26T15:37:09.059Z,10.23
2019-05-26T15:39:37.557Z,3.98
2019-05-26T15:42:08.338Z,5.40
2019-05-26T15:44:36.322Z,7.37
2019-05-26T15:47:05.678Z,6.03
2019-05-26T15:49:34.219Z,8.43
2019-05-26T15:52:02.802Z,5.72
2019-05-26T15:54:31.771Z,6.12
2019-05-26T15:57:00.267Z,7.00
2019-05-26T15:59:28.978Z,4.78
2019-05-26T16:01:57.435Z,5.42
2019-05-26T16:04:25.896Z,5.03
2019-05-26T16:06:54.580Z,6.12
2019-05-26T16:09:23.399Z,8.55
2019-05-26T16:11:52.120Z,5.87
2019-05-26T16:14:21.096Z,5.83
2019-05-26T16:16:51.381Z,10.38
2019-05-26T16:19:19.710Z,5.28
2019-05-26T16:21:48.490Z,5.10
2019-05-26T16:24:17.211Z,6.37
2019-05-26T16:26:45.646Z,7.62
2019-05-26T16:29:14.120Z,5.35
2019-05-26T16:31:42.559Z,6.92
2019-05-26T16:34:11.007Z,4.47
2019-05-26T16:36:39.451Z,8.58
2019-05-26T16:39:07.973Z,6.37
2019-05-26T16:41:36.771Z,11.93
2019-05-26T16:44:05.337Z,6.42
2019-05-26T16:46:33.782Z,8.60
2019-05-26T16:49:02.241Z,9.60
2019-05-26T16:51:30.976Z,8.45
2019-05-26T16:53:59.846Z,7.12
2019-05-26T16:56:28.370Z,7.30
2019-05-26T16:58:57.111Z,4.83
2019-05-26T17:01:25.838Z,4.65
2019-05-26T17:03:54.346Z,4.03
2019-05-26T17:06:22.795Z,6.70
2019-05-26T17:08:51.254Z,4.72
2019-05-26T17:11:19.693Z,7.62
2019-05-26T17:13:48.164Z,3.55
2019-05-26T17:16:16.856Z,3.80
2019-05-26T17:18:45.488Z,5.62
2019-05-26T17:21:14.015Z,5.90
2019-05-26T17:23:42.724Z,5.83
2019-05-26T17:26:11.179Z,7.05
2019-05-26T17:28:39.911Z,7.30
2019-05-26T17:31:08.364Z,8.25
2019-05-26T17:33:36.810Z,4.65
2019-05-26T17:36:05.522Z,6.33
2019-05-26T17:38:34.255Z,3.83
2019-05-26T17:41:02.945Z,9.83
2019-05-26T17:43:31.659Z,5.17
2019-05-26T17:46:00.104Z,4.30
2019-05-26T17:48:28.624Z,5.62
2019-05-26T17:50:57.527Z,3.47
2019-05-26T17:53:29.150Z,5.00
2019-05-26T17:55:58.019Z,6.28
2019-05-26T17:58:26.635Z,8.55
2019-05-26T18:00:55.086Z,3.35
2019-05-26T18:03:23.527Z,3.87
2019-05-26T18:05:52.295Z,5.85
2019-05-26T18:08:20.814Z,4.25
2019-05-26T18:10:49.419Z,8.58
2019-05-26T18:13:18.556Z,5.47
2019-05-26T18:15:47.326Z,8.18
2019-05-26T18:18:15.928Z,7.87
2019-05-26T18:20:45.950Z,6.50
2019-05-26T18:23:14.723Z,9.83
2019-05-26T18:25:43.543Z,10.60
2019-05-26T18:28:11.992Z,9.68
2019-05-26T18:30:40.997Z,9.23
2019-05-26T18:33:09.511Z,10.38
2019-05-26T18:35:38.291Z,6.00
2019-05-26T18:38:07.322Z,6.67
2019-05-26T18:40:35.800Z,4.35
2019-05-26T18:43:08.266Z,8.03
2019-05-26T18:45:36.954Z,8.40
2019-05-26T18:48:05.723Z,7.47
2019-05-26T18:50:34.812Z,11.25
2019-05-26T18:53:03.487Z,8.28
2019-05-26T18:55:31.993Z,5.55
2019-05-26T18:58:00.654Z,6.42
2019-05-26T19:00:30.945Z,8.45
2019-05-26T19:02:59.435Z,9.68
2019-05-26T19:05:33.701Z,9.78
2019-05-26T19:07:58.304Z,14.85
2019-05-26T19:10:27.007Z,6.90
2019-05-26T19:12:55.767Z,6.10
2019-05-26T19:15:24.284Z,5.85
2019-05-26T19:17:52.979Z,5.65
2019-05-26T19:20:22.614Z,10.45
2019-05-26T19:22:53.438Z,8.50
2019-05-26T19:25:21.542Z,5.22
2019-05-26T19:27:50.064Z,6.50
2019-05-26T19:30:18.676Z,5.53
2019-05-26T19:32:47.180Z,4.10
2019-05-26T19:35:15.614Z,5.30
2019-05-26T19:37:44.064Z,4.55
2019-05-26T19:40:13.599Z,6.78
2019-05-26T19:42:42.297Z,4.45
2019-05-26T19:45:11.130Z,6.87
2019-05-26T19:47:39.571Z,9.48
2019-05-26T19:50:08.718Z,7.50
2019-05-26T19:52:37.172Z,6.60
2019-05-26T19:55:08.754Z,8.48
2019-05-26T19:57:37.497Z,9.83
2019-05-26T20:00:15.211Z,7.03
2019-05-26T20:02:43.658Z,8.63
2019-05-26T20:05:14.530Z,7.05
2019-05-26T20:07:43.027Z,5.70
2019-05-26T20:10:12.059Z,5.95
2019-05-26T20:12:40.867Z,7.35
2019-05-26T20:15:11.406Z,8.58
2019-05-26T20:17:39.857Z,8.50
2019-05-26T20:20:09.473Z,7.40
2019-05-26T20:22:38.003Z,10.05
2019-05-26T20:25:08.771Z,7.00
2019-05-26T20:27:37.362Z,9.80
2019-05-26T20:30:09.304Z,14.83
2019-05-26T20:32:38.295Z,10.00
2019-05-26T20:35:10.116Z,8.58
2019-05-26T20:37:38.878Z,7.30
2019-05-26T20:40:09.239Z,6.60
2019-05-26T20:42:38.324Z,6.72
2019-05-26T20:45:08.009Z,7.55
2019-05-26T20:47:36.566Z,9.03
2019-05-26T20:50:08.274Z,6.35
2019-05-26T20:52:38.561Z,4.62
2019-05-26T20:55:09.095Z,9.45
2019-05-26T20:57:37.960Z,5.12
2019-05-26T21:00:11.515Z,8.40
2019-05-26T21:02:41.079Z,8.68
2019-05-26T21:05:10.619Z,8.23
2019-05-26T21:07:39.082Z,10.20
2019-05-26T21:10:08.708Z,8.33
2019-05-26T21:12:37.237Z,6.60
2019-05-26T21:15:08.989Z,7.58
2019-05-26T21:17:37.435Z,5.33
2019-05-26T21:20:10.091Z,7.60
2019-05-26T21:22:39.021Z,4.58
2019-05-26T21:25:08.000Z,7.67
2019-05-26T21:27:36.597Z,6.28
2019-05-26T21:30:09.882Z,11.35
2019-05-26T21:32:38.388Z,8.38
2019-05-26T21:35:07.663Z,9.53
2019-05-26T21:37:36.200Z,5.33
2019-05-26T21:40:07.093Z,8.58
2019-05-26T21:42:35.533Z,5.83
2019-05-26T21:45:05.806Z,7.00
2019-05-26T21:47:34.270Z,5.58
2019-05-26T21:50:03.216Z,7.67
2019-05-26T21:52:31.745Z,6.40
2019-05-26T21:55:00.309Z,10.58
2019-05-26T21:57:28.807Z,6.78
2019-05-26T21:59:57.274Z,7.00
2019-05-26T22:02:26.147Z,7.22
2019-05-26T22:04:54.662Z,6.50
2019-05-26T22:07:23.399Z,6.42
2019-05-26T22:09:52.060Z,10.70
2019-05-26T22:12:20.615Z,6.95
2019-05-26T22:14:49.368Z,8.03
2019-05-26T22:17:17.871Z,7.90
2019-05-26T22:19:46.671Z,17.57
2019-05-26T22:22:15.113Z,9.05
2019-05-26T22:24:43.567Z,10.05
2019-05-26T22:27:12.267Z,10.25
2019-05-26T22:29:40.875Z,7.67
2019-05-26T22:32:12.554Z,6.50
2019-05-26T22:34:41.071Z,11.70
2019-05-26T22:37:09.589Z,8.70
2019-05-26T22:39:38.188Z,11.43
2019-05-26T22:42:06.626Z,7.83
2019-05-26T22:44:35.115Z,11.55
2019-05-26T22:47:03.641Z,8.35
2019-05-26T22:49:32.229Z,9.28
2019-05-26T22:52:00.745Z,11.18
2019-05-26T22:54:29.337Z,21.33
2019-05-26T22:56:58.058Z,12.75
2019-05-26T22:59:26.880Z,8.70
2019-05-26T23:01:55.342Z,11.73
2019-05-26T23:04:23.771Z,7.97
2019-05-26T23:06:52.235Z,12.63
2019-05-26T23:09:20.671Z,14.60
2019-05-26T23:11:49.367Z,11.75
2019-05-26T23:14:17.814Z,11.28
2019-05-26T23:16:46.256Z,8.53
2019-05-26T23:19:19.410Z,8.08
2019-05-26T23:21:45.076Z,6.83
2019-05-26T23:24:14.294Z,8.85
2019-05-26T23:26:42.836Z,14.20
2019-05-26T23:29:11.286Z,13.38
2019-05-26T23:31:39.724Z,11.93
2019-05-26T23:34:08.429Z,12.10
2019-05-26T23:36:37.161Z,10.55
2019-05-26T23:39:07.199Z,8.45
2019-05-26T23:41:36.004Z,12.33
2019-05-26T23:44:04.706Z,7.92
2019-05-26T23:46:33.391Z,11.30
2019-05-26T23:49:01.855Z,13.22
2019-05-26T23:51:30.401Z,8.18
2019-05-26T23:53:58.890Z,11.68
2019-05-26T23:56:27.675Z,8.93
2019-05-26T23:58:56.106Z,7.97
